EDT,Max TemperatureF,Mean TemperatureF,Min TemperatureF,Max Dew PointF,MeanDew PointF,Min DewpointF,Max Humidity, Mean Humidity, Min Humidity, Max Sea Level PressureIn, Mean Sea Level PressureIn, Min Sea Level PressureIn, Max VisibilityMiles, Mean VisibilityMiles, Min VisibilityMiles, Max Wind SpeedMPH, Mean Wind SpeedMPH, Max Gust SpeedMPH,PrecipitationIn, CloudCover, Events, WindDirDegrees
2014-5-1,78,68,59,62,57,47,84,68,48,29.93,29.89,29.83,10,10,10,21,10,28,0.00,5,Rain,220
2014-5-2,69,60,50,51,46,38,89,65,36,30.00,29.94,29.89,10,10,10,8,3,,0.00,2,Rain,214
2014-5-3,75,63,51,50,45,40,92,55,28,29.98,29.93,29.88,10,10,10,14,6,16,0.00,1,,256
2014-5-4,86,67,50,51,47,43,80,50,26,30.04,29.97,29.89,10,10,10,18,6,22,0.00,0,,239
2014-5-5,90,74,59,54,51,47,72,49,23,30.00,29.91,29.83,10,10,10,12,6,,0.00,0,,235
2014-5-6,88,74,60,56,53,49,78,50,27,29.97,29.92,29.85,10,10,10,13,5,,0.00,0,,224
2014-5-7,86,72,59,62,57,54,83,61,38,30.13,30.07,29.96,10,10,10,7,4,,0.00,0,,246
2014-5-8,90,74,57,59,55,52,81,55,30,30.22,30.15,30.11,10,10,10,22,6,26,0.00,0,,225
2014-5-9,89,75,64,63,60,56,84,63,43,30.18,30.12,30.06,10,10,10,16,6,22,0.00,1,Rain,228
2014-5-10,84,73,64,67,63,60,94,79,54,30.14,30.09,30.04,10,8,1,24,5,36,0.07,3,Rain-Thunderstorm,227
2014-5-11,86,72,60,64,61,57,100,81,38,30.18,30.11,30.07,10,6,0,7,1,,0.00,1,Fog,250
2014-5-12,90,76,62,67,62,58,93,73,36,30.21,30.15,30.11,10,8,2,10,2,,0.00,0,,223
2014-5-13,90,78,66,66,64,62,90,64,40,30.18,30.12,30.08,10,10,9,10,5,18,0.00,0,,210
2014-5-14,86,75,66,67,63,55,93,65,36,30.18,30.12,30.03,10,10,5,13,6,17,0.00,2,,214
2014-5-15,73,69,64,68,66,61,97,90,76,30.07,29.95,29.85,10,6,1,15,5,22,1.93,8,Rain-Thunderstorm,219
2014-5-16,72,62,54,59,48,40,90,64,39,30.12,29.97,29.88,10,10,10,14,7,20,0.00,3,,292
2014-5-17,72,58,44,47,43,39,89,59,34,30.22,30.17,30.12,10,10,10,14,6,21,0.00,1,,247
2014-5-18,68,60,52,50,47,45,93,66,47,30.27,30.23,30.18,10,10,8,12,4,,0.00,4,Rain,341
2014-5-19,73,60,46,52,46,42,93,68,34,30.33,30.26,30.21,10,8,2,6,1,,0.00,0,,60
2014-5-20,79,65,52,59,54,46,86,64,48,30.32,30.22,30.13,10,10,10,15,6,21,0.00,1,,217
2014-5-21,87,74,60,63,60,55,86,64,37,30.14,30.07,29.98,10,10,9,13,8,22,0.00,0,,233
2014-5-22,90,78,68,64,60,57,78,55,35,30.03,29.96,29.92,10,10,10,14,8,21,0.00,0,,264
2014-5-23,90,78,66,65,61,55,90,64,31,30.04,29.98,29.94,10,10,4,28,6,44,0.00,1,Rain-Thunderstorm,272
2014-5-24,82,71,60,54,49,44,70,48,26,30.15,30.10,30.03,10,10,10,14,6,,0.00,0,,41
2014-5-25,82,69,57,63,57,50,81,63,41,30.21,30.16,30.12,10,10,10,6,2,,0.00,2,,196
2014-5-26,86,72,59,66,62,56,93,74,49,30.23,30.17,30.10,10,10,10,13,4,,0.00,1,,214
2014-5-27,89,77,66,70,66,64,93,79,46,30.13,30.06,30.00,10,8,1,26,8,55,0.21,1,Rain-Thunderstorm,234
2014-5-28,89,78,68,69,66,61,93,75,40,30.05,30.02,29.97,10,8,2,9,5,,0.00,0,,236
2014-5-29,91,78,66,68,66,62,93,77,40,30.12,30.05,29.96,10,8,2,30,5,41,0.44,4,Rain-Thunderstorm,2
2014-5-30,82,74,66,69,66,64,97,83,62,30.12,30.07,30.04,10,8,1,7,3,,0.01,5,,95
2014-5-31,80,73,66,68,63,59,93,78,48,30.20,30.14,30.10,10,9,2,12,6,,0.00,5,,56